sensor_id;sensor_type;location;lat;lon;timestamp;P1;durP1;ratioP1;P2;durP2;ratioP2
75737;SDS011;64356;45.638;13.764;2023-05-24T00:01:11;12.60;;;10.02;;
75737;SDS011;64356;45.638;13.764;2023-05-24T00:03:38;12.57;;;9.85;;
75737;SDS011;64356;45.638;13.764;2023-05-24T00:06:04;13.88;;;10.27;;
75737;SDS011;64356;45.638;13.764;2023-05-24T00:08:31;10.68;;;9.43;;
75737;SDS011;64356;45.638;13.764;2023-05-24T00:10:57;11.30;;;9.85;;
75737;SDS011;64356;45.638;13.764;2023-05-24T00:13:23;10.88;;;9.57;;
75737;SDS011;64356;45.638;13.764;2023-05-24T00:15:49;14.45;;;9.82;;
75737;SDS011;64356;45.638;13.764;2023-05-24T00:18:15;14.35;;;10.20;;
75737;SDS011;64356;45.638;13.764;2023-05-24T00:20:42;11.02;;;9.70;;
75737;SDS011;64356;45.638;13.764;2023-05-24T00:23:08;12.45;;;8.88;;
75737;SDS011;64356;45.638;13.764;2023-05-24T00:25:34;14.10;;;10.32;;
75737;SDS011;64356;45.638;13.764;2023-05-24T00:28:00;13.15;;;10.30;;
75737;SDS011;64356;45.638;13.764;2023-05-24T00:30:26;14.52;;;9.98;;
75737;SDS011;64356;45.638;13.764;2023-05-24T00:32:51;15.60;;;9.95;;
75737;SDS011;64356;45.638;13.764;2023-05-24T00:35:17;14.70;;;10.07;;
75737;SDS011;64356;45.638;13.764;2023-05-24T00:37:43;17.45;;;10.70;;
75737;SDS011;64356;45.638;13.764;2023-05-24T00:40:12;12.93;;;10.02;;
75737;SDS011;64356;45.638;13.764;2023-05-24T00:42:38;23.40;;;10.18;;
75737;SDS011;64356;45.638;13.764;2023-05-24T00:45:04;12.35;;;10.32;;
75737;SDS011;64356;45.638;13.764;2023-05-24T00:47:31;14.52;;;9.50;;
75737;SDS011;64356;45.638;13.764;2023-05-24T00:49:57;12.48;;;10.10;;
75737;SDS011;64356;45.638;13.764;2023-05-24T00:52:23;15.40;;;10.38;;
75737;SDS011;64356;45.638;13.764;2023-05-24T00:54:49;16.15;;;9.63;;
75737;SDS011;64356;45.638;13.764;2023-05-24T00:57:15;12.15;;;9.88;;
75737;SDS011;64356;45.638;13.764;2023-05-24T00:59:42;14.70;;;10.48;;
75737;SDS011;64356;45.638;13.764;2023-05-24T01:02:10;14.30;;;9.57;;
75737;SDS011;64356;45.638;13.764;2023-05-24T01:04:36;15.07;;;10.38;;
75737;SDS011;64356;45.638;13.764;2023-05-24T01:12:52;15.35;;;9.93;;
75737;SDS011;64356;45.638;13.764;2023-05-24T01:18:15;14.30;;;10.88;;
75737;SDS011;64356;45.638;13.764;2023-05-24T01:20:58;12.52;;;9.38;;
75737;SDS011;64356;45.638;13.764;2023-05-24T01:23:46;13.55;;;9.57;;
75737;SDS011;64356;45.638;13.764;2023-05-24T01:26:53;16.48;;;10.45;;
75737;SDS011;64356;45.638;13.764;2023-05-24T01:29:25;15.35;;;11.20;;
75737;SDS011;64356;45.638;13.764;2023-05-24T01:31:53;18.23;;;10.57;;
75737;SDS011;64356;45.638;13.764;2023-05-24T01:34:19;15.05;;;9.95;;
75737;SDS011;64356;45.638;13.764;2023-05-24T01:36:45;12.95;;;9.98;;
75737;SDS011;64356;45.638;13.764;2023-05-24T01:39:10;13.85;;;9.98;;
75737;SDS011;64356;45.638;13.764;2023-05-24T01:41:38;12.05;;;9.88;;
75737;SDS011;64356;45.638;13.764;2023-05-24T01:46:56;15.52;;;10.40;;
75737;SDS011;64356;45.638;13.764;2023-05-24T01:49:30;15.25;;;9.98;;
75737;SDS011;64356;45.638;13.764;2023-05-24T01:51:59;20.02;;;10.00;;
75737;SDS011;64356;45.638;13.764;2023-05-24T01:54:29;12.55;;;9.60;;
75737;SDS011;64356;45.638;13.764;2023-05-24T01:56:58;15.25;;;10.68;;
75737;SDS011;64356;45.638;13.764;2023-05-24T01:59:26;12.15;;;10.27;;
75737;SDS011;64356;45.638;13.764;2023-05-24T02:01:54;12.73;;;9.88;;
75737;SDS011;64356;45.638;13.764;2023-05-24T02:04:20;15.35;;;9.80;;
75737;SDS011;64356;45.638;13.764;2023-05-24T02:06:46;12.52;;;9.75;;
75737;SDS011;64356;45.638;13.764;2023-05-24T02:09:11;13.27;;;9.50;;
75737;SDS011;64356;45.638;13.764;2023-05-24T02:11:37;11.63;;;9.73;;
75737;SDS011;64356;45.638;13.764;2023-05-24T02:14:03;11.82;;;9.88;;
75737;SDS011;64356;45.638;13.764;2023-05-24T02:16:28;13.77;;;10.05;;
75737;SDS011;64356;45.638;13.764;2023-05-24T02:18:55;13.23;;;9.65;;
75737;SDS011;64356;45.638;13.764;2023-05-24T02:21:21;15.20;;;9.63;;
75737;SDS011;64356;45.638;13.764;2023-05-24T02:23:51;11.45;;;9.90;;
75737;SDS011;64356;45.638;13.764;2023-05-24T02:26:16;18.52;;;9.75;;
75737;SDS011;64356;45.638;13.764;2023-05-24T02:28:45;13.02;;;10.07;;
75737;SDS011;64356;45.638;13.764;2023-05-24T02:31:12;15.73;;;9.43;;
75737;SDS011;64356;45.638;13.764;2023-05-24T02:33:37;15.77;;;9.52;;
75737;SDS011;64356;45.638;13.764;2023-05-24T02:36:03;16.45;;;10.30;;
75737;SDS011;64356;45.638;13.764;2023-05-24T02:38:29;13.98;;;8.90;;
75737;SDS011;64356;45.638;13.764;2023-05-24T02:40:55;10.73;;;9.38;;
75737;SDS011;64356;45.638;13.764;2023-05-24T02:43:21;10.80;;;8.95;;
75737;SDS011;64356;45.638;13.764;2023-05-24T02:45:47;14.57;;;10.88;;
75737;SDS011;64356;45.638;13.764;2023-05-24T02:48:12;16.50;;;10.27;;
75737;SDS011;64356;45.638;13.764;2023-05-24T02:50:38;10.13;;;9.07;;
75737;SDS011;64356;45.638;13.764;2023-05-24T02:53:04;13.18;;;9.25;;
75737;SDS011;64356;45.638;13.764;2023-05-24T02:55:29;11.82;;;9.65;;
75737;SDS011;64356;45.638;13.764;2023-05-24T02:57:56;11.98;;;9.48;;
75737;SDS011;64356;45.638;13.764;2023-05-24T03:00:22;10.80;;;9.65;;
75737;SDS011;64356;45.638;13.764;2023-05-24T03:02:47;12.88;;;9.52;;
75737;SDS011;64356;45.638;13.764;2023-05-24T03:05:15;12.43;;;9.30;;
75737;SDS011;64356;45.638;13.764;2023-05-24T03:07:41;12.75;;;9.25;;
75737;SDS011;64356;45.638;13.764;2023-05-24T03:10:07;12.10;;;9.35;;
75737;SDS011;64356;45.638;13.764;2023-05-24T03:12:33;11.82;;;9.57;;
75737;SDS011;64356;45.638;13.764;2023-05-24T03:14:59;11.15;;;9.25;;
75737;SDS011;64356;45.638;13.764;2023-05-24T03:17:24;12.93;;;9.07;;
75737;SDS011;64356;45.638;13.764;2023-05-24T03:19:50;10.55;;;8.90;;
75737;SDS011;64356;45.638;13.764;2023-05-24T03:22:17;10.95;;;8.60;;
75737;SDS011;64356;45.638;13.764;2023-05-24T03:24:43;12.57;;;8.18;;
75737;SDS011;64356;45.638;13.764;2023-05-24T03:27:10;11.93;;;9.55;;
75737;SDS011;64356;45.638;13.764;2023-05-24T03:29:36;11.40;;;9.25;;
75737;SDS011;64356;45.638;13.764;2023-05-24T03:32:01;10.85;;;9.45;;
75737;SDS011;64356;45.638;13.764;2023-05-24T03:34:27;12.13;;;9.30;;
75737;SDS011;64356;45.638;13.764;2023-05-24T03:36:54;11.05;;;9.20;;
75737;SDS011;64356;45.638;13.764;2023-05-24T03:39:19;13.23;;;9.05;;
75737;SDS011;64356;45.638;13.764;2023-05-24T03:41:45;10.55;;;8.98;;
75737;SDS011;64356;45.638;13.764;2023-05-24T03:44:11;14.20;;;9.18;;
75737;SDS011;64356;45.638;13.764;2023-05-24T03:46:37;11.02;;;9.00;;
75737;SDS011;64356;45.638;13.764;2023-05-24T03:49:03;14.50;;;9.30;;
75737;SDS011;64356;45.638;13.764;2023-05-24T03:51:28;14.45;;;9.10;;
75737;SDS011;64356;45.638;13.764;2023-05-24T03:53:55;12.77;;;9.55;;
75737;SDS011;64356;45.638;13.764;2023-05-24T03:56:21;10.85;;;9.20;;
75737;SDS011;64356;45.638;13.764;2023-05-24T03:58:47;9.90;;;8.40;;
75737;SDS011;64356;45.638;13.764;2023-05-24T04:01:13;12.35;;;8.73;;
75737;SDS011;64356;45.638;13.764;2023-05-24T04:03:39;11.88;;;8.80;;
75737;SDS011;64356;45.638;13.764;2023-05-24T04:06:05;11.40;;;8.68;;
75737;SDS011;64356;45.638;13.764;2023-05-24T04:08:31;10.32;;;9.05;;
75737;SDS011;64356;45.638;13.764;2023-05-24T04:10:56;13.90;;;8.10;;
75737;SDS011;64356;45.638;13.764;2023-05-24T04:13:22;13.75;;;8.82;;
75737;SDS011;64356;45.638;13.764;2023-05-24T04:15:48;10.93;;;8.93;;
75737;SDS011;64356;45.638;13.764;2023-05-24T04:18:13;11.63;;;8.80;;
75737;SDS011;64356;45.638;13.764;2023-05-24T04:20:39;9.57;;;8.32;;
75737;SDS011;64356;45.638;13.764;2023-05-24T04:23:05;9.60;;;8.48;;
75737;SDS011;64356;45.638;13.764;2023-05-24T04:25:31;11.88;;;9.13;;
75737;SDS011;64356;45.638;13.764;2023-05-24T04:27:57;12.48;;;9.05;;
75737;SDS011;64356;45.638;13.764;2023-05-24T04:30:24;9.82;;;8.23;;
75737;SDS011;64356;45.638;13.764;2023-05-24T04:32:50;13.88;;;8.63;;
75737;SDS011;64356;45.638;13.764;2023-05-24T04:35:16;12.15;;;8.68;;
75737;SDS011;64356;45.638;13.764;2023-05-24T04:37:42;16.88;;;8.27;;
75737;SDS011;64356;45.638;13.764;2023-05-24T04:40:08;11.02;;;8.38;;
75737;SDS011;64356;45.638;13.764;2023-05-24T04:42:34;11.70;;;7.93;;
75737;SDS011;64356;45.638;13.764;2023-05-24T04:45:00;11.43;;;8.18;;
75737;SDS011;64356;45.638;13.764;2023-05-24T04:47:26;10.60;;;7.78;;
75737;SDS011;64356;45.638;13.764;2023-05-24T04:49:51;11.70;;;8.20;;
75737;SDS011;64356;45.638;13.764;2023-05-24T04:52:17;10.75;;;7.85;;
75737;SDS011;64356;45.638;13.764;2023-05-24T04:54:43;10.07;;;7.45;;
75737;SDS011;64356;45.638;13.764;2023-05-24T04:57:09;11.00;;;7.97;;
75737;SDS011;64356;45.638;13.764;2023-05-24T04:59:35;12.18;;;7.82;;
75737;SDS011;64356;45.638;13.764;2023-05-24T05:02:00;9.88;;;7.95;;
75737;SDS011;64356;45.638;13.764;2023-05-24T05:04:26;12.80;;;7.75;;
75737;SDS011;64356;45.638;13.764;2023-05-24T05:06:52;9.65;;;7.47;;
75737;SDS011;64356;45.638;13.764;2023-05-24T05:09:19;11.70;;;7.20;;
75737;SDS011;64356;45.638;13.764;2023-05-24T05:11:45;12.77;;;7.53;;
75737;SDS011;64356;45.638;13.764;2023-05-24T05:14:11;9.70;;;7.30;;
75737;SDS011;64356;45.638;13.764;2023-05-24T05:16:37;11.35;;;7.40;;
75737;SDS011;64356;45.638;13.764;2023-05-24T05:19:03;13.13;;;7.40;;
75737;SDS011;64356;45.638;13.764;2023-05-24T05:21:30;11.40;;;7.65;;
75737;SDS011;64356;45.638;13.764;2023-05-24T05:23:57;9.10;;;7.10;;
75737;SDS011;64356;45.638;13.764;2023-05-24T05:26:27;11.35;;;7.93;;
75737;SDS011;64356;45.638;13.764;2023-05-24T05:28:53;12.93;;;7.20;;
75737;SDS011;64356;45.638;13.764;2023-05-24T05:31:19;8.48;;;7.32;;
75737;SDS011;64356;45.638;13.764;2023-05-24T05:33:44;13.60;;;7.35;;
75737;SDS011;64356;45.638;13.764;2023-05-24T05:36:10;13.40;;;7.13;;
75737;SDS011;64356;45.638;13.764;2023-05-24T05:38:36;9.93;;;6.97;;
75737;SDS011;64356;45.638;13.764;2023-05-24T05:41:02;9.45;;;6.97;;
75737;SDS011;64356;45.638;13.764;2023-05-24T05:43:27;8.95;;;7.00;;
75737;SDS011;64356;45.638;13.764;2023-05-24T05:45:53;10.80;;;6.82;;
75737;SDS011;64356;45.638;13.764;2023-05-24T05:48:20;15.65;;;6.82;;
75737;SDS011;64356;45.638;13.764;2023-05-24T05:50:46;16.75;;;6.85;;
75737;SDS011;64356;45.638;13.764;2023-05-24T05:53:12;28.63;;;7.03;;
75737;SDS011;64356;45.638;13.764;2023-05-24T05:55:39;12.30;;;6.25;;
75737;SDS011;64356;45.638;13.764;2023-05-24T05:58:05;45.47;;;6.70;;
75737;SDS011;64356;45.638;13.764;2023-05-24T06:00:31;28.55;;;5.45;;
75737;SDS011;64356;45.638;13.764;2023-05-24T06:02:56;17.38;;;5.10;;
75737;SDS011;64356;45.638;13.764;2023-05-24T06:05:22;20.20;;;5.32;;
75737;SDS011;64356;45.638;13.764;2023-05-24T06:07:48;22.65;;;6.05;;
75737;SDS011;64356;45.638;13.764;2023-05-24T06:10:13;12.10;;;4.88;;
75737;SDS011;64356;45.638;13.764;2023-05-24T06:12:39;20.70;;;5.38;;
75737;SDS011;64356;45.638;13.764;2023-05-24T06:15:07;17.33;;;5.80;;
75737;SDS011;64356;45.638;13.764;2023-05-24T06:17:34;12.65;;;5.78;;
75737;SDS011;64356;45.638;13.764;2023-05-24T06:20:02;9.52;;;5.57;;
75737;SDS011;64356;45.638;13.764;2023-05-24T06:22:33;17.73;;;5.35;;
75737;SDS011;64356;45.638;13.764;2023-05-24T06:25:01;6.40;;;4.78;;
75737;SDS011;64356;45.638;13.764;2023-05-24T06:27:28;9.10;;;5.28;;
75737;SDS011;64356;45.638;13.764;2023-05-24T06:29:53;7.25;;;5.18;;
75737;SDS011;64356;45.638;13.764;2023-05-24T06:32:19;14.50;;;5.18;;
75737;SDS011;64356;45.638;13.764;2023-05-24T06:34:45;9.70;;;5.18;;
75737;SDS011;64356;45.638;13.764;2023-05-24T06:37:10;8.80;;;5.05;;
75737;SDS011;64356;45.638;13.764;2023-05-24T06:39:39;7.53;;;4.90;;
75737;SDS011;64356;45.638;13.764;2023-05-24T06:42:05;7.47;;;5.18;;
75737;SDS011;64356;45.638;13.764;2023-05-24T06:44:31;9.00;;;5.53;;
75737;SDS011;64356;45.638;13.764;2023-05-24T06:47:01;8.90;;;5.57;;
75737;SDS011;64356;45.638;13.764;2023-05-24T06:49:27;8.77;;;5.25;;
75737;SDS011;64356;45.638;13.764;2023-05-24T06:51:53;10.73;;;5.47;;
75737;SDS011;64356;45.638;13.764;2023-05-24T06:54:19;14.43;;;5.15;;
75737;SDS011;64356;45.638;13.764;2023-05-24T06:56:45;9.77;;;5.40;;
75737;SDS011;64356;45.638;13.764;2023-05-24T06:59:11;15.77;;;6.32;;
75737;SDS011;64356;45.638;13.764;2023-05-24T07:01:38;19.77;;;6.18;;
75737;SDS011;64356;45.638;13.764;2023-05-24T07:04:07;22.38;;;5.00;;
75737;SDS011;64356;45.638;13.764;2023-05-24T07:06:33;18.90;;;5.50;;
75737;SDS011;64356;45.638;13.764;2023-05-24T07:09:01;14.13;;;5.07;;
75737;SDS011;64356;45.638;13.764;2023-05-24T07:11:28;14.48;;;5.60;;
75737;SDS011;64356;45.638;13.764;2023-05-24T07:13:55;16.27;;;5.30;;
75737;SDS011;64356;45.638;13.764;2023-05-24T07:16:21;10.07;;;5.55;;
75737;SDS011;64356;45.638;13.764;2023-05-24T07:18:47;14.05;;;5.80;;
75737;SDS011;64356;45.638;13.764;2023-05-24T07:21:12;9.88;;;4.97;;
75737;SDS011;64356;45.638;13.764;2023-05-24T07:23:38;18.30;;;5.10;;
75737;SDS011;64356;45.638;13.764;2023-05-24T07:26:10;25.40;;;5.93;;
75737;SDS011;64356;45.638;13.764;2023-05-24T07:28:36;11.60;;;5.72;;
75737;SDS011;64356;45.638;13.764;2023-05-24T07:31:04;11.70;;;4.70;;
75737;SDS011;64356;45.638;13.764;2023-05-24T07:33:30;7.90;;;4.22;;
75737;SDS011;64356;45.638;13.764;2023-05-24T07:35:58;12.40;;;4.97;;
75737;SDS011;64356;45.638;13.764;2023-05-24T07:38:27;11.98;;;4.97;;
75737;SDS011;64356;45.638;13.764;2023-05-24T07:40:53;8.85;;;4.68;;
75737;SDS011;64356;45.638;13.764;2023-05-24T07:43:19;11.65;;;5.32;;
75737;SDS011;64356;45.638;13.764;2023-05-24T07:45:45;8.75;;;4.70;;
75737;SDS011;64356;45.638;13.764;2023-05-24T07:48:11;17.48;;;5.25;;
75737;SDS011;64356;45.638;13.764;2023-05-24T07:50:36;8.77;;;4.70;;
75737;SDS011;64356;45.638;13.764;2023-05-24T07:53:02;17.10;;;5.18;;
75737;SDS011;64356;45.638;13.764;2023-05-24T07:55:29;14.80;;;4.53;;
75737;SDS011;64356;45.638;13.764;2023-05-24T07:57:54;23.67;;;5.43;;
75737;SDS011;64356;45.638;13.764;2023-05-24T08:00:20;34.40;;;5.40;;
75737;SDS011;64356;45.638;13.764;2023-05-24T08:02:47;20.60;;;5.28;;
75737;SDS011;64356;45.638;13.764;2023-05-24T08:05:12;32.47;;;5.80;;
75737;SDS011;64356;45.638;13.764;2023-05-24T08:07:39;13.95;;;5.30;;
75737;SDS011;64356;45.638;13.764;2023-05-24T08:10:06;19.08;;;5.30;;
75737;SDS011;64356;45.638;13.764;2023-05-24T08:12:33;16.60;;;4.72;;
75737;SDS011;64356;45.638;13.764;2023-05-24T08:15:00;31.80;;;5.55;;
75737;SDS011;64356;45.638;13.764;2023-05-24T08:17:26;8.70;;;4.90;;
75737;SDS011;64356;45.638;13.764;2023-05-24T08:19:51;12.55;;;4.40;;
75737;SDS011;64356;45.638;13.764;2023-05-24T08:22:17;18.27;;;4.68;;
75737;SDS011;64356;45.638;13.764;2023-05-24T08:24:43;18.33;;;4.95;;
75737;SDS011;64356;45.638;13.764;2023-05-24T08:27:09;33.28;;;5.03;;
75737;SDS011;64356;45.638;13.764;2023-05-24T08:29:36;19.45;;;4.40;;
75737;SDS011;64356;45.638;13.764;2023-05-24T08:32:03;13.63;;;4.53;;
75737;SDS011;64356;45.638;13.764;2023-05-24T08:34:33;28.65;;;4.70;;
75737;SDS011;64356;45.638;13.764;2023-05-24T08:37:03;21.23;;;4.43;;
75737;SDS011;64356;45.638;13.764;2023-05-24T08:39:29;10.20;;;4.55;;
75737;SDS011;64356;45.638;13.764;2023-05-24T08:41:55;17.48;;;4.75;;
75737;SDS011;64356;45.638;13.764;2023-05-24T08:44:22;12.48;;;4.40;;
75737;SDS011;64356;45.638;13.764;2023-05-24T08:46:49;13.70;;;4.30;;
75737;SDS011;64356;45.638;13.764;2023-05-24T08:49:15;10.15;;;4.18;;
75737;SDS011;64356;45.638;13.764;2023-05-24T08:51:42;19.58;;;4.55;;
75737;SDS011;64356;45.638;13.764;2023-05-24T08:54:09;10.65;;;5.20;;
75737;SDS011;64356;45.638;13.764;2023-05-24T08:56:39;24.98;;;5.38;;
75737;SDS011;64356;45.638;13.764;2023-05-24T08:59:06;37.35;;;6.80;;
75737;SDS011;64356;45.638;13.764;2023-05-24T09:01:32;37.40;;;5.85;;
75737;SDS011;64356;45.638;13.764;2023-05-24T09:04:01;30.95;;;8.02;;
75737;SDS011;64356;45.638;13.764;2023-05-24T09:06:28;20.70;;;5.00;;
75737;SDS011;64356;45.638;13.764;2023-05-24T09:08:54;16.98;;;4.55;;
75737;SDS011;64356;45.638;13.764;2023-05-24T09:11:22;18.88;;;6.05;;
75737;SDS011;64356;45.638;13.764;2023-05-24T09:13:50;20.45;;;5.57;;
75737;SDS011;64356;45.638;13.764;2023-05-24T09:16:15;13.98;;;5.15;;
75737;SDS011;64356;45.638;13.764;2023-05-24T09:18:41;20.15;;;5.82;;
75737;SDS011;64356;45.638;13.764;2023-05-24T09:21:08;24.23;;;5.60;;
75737;SDS011;64356;45.638;13.764;2023-05-24T09:23:37;17.10;;;5.15;;
75737;SDS011;64356;45.638;13.764;2023-05-24T09:26:07;17.00;;;5.10;;
75737;SDS011;64356;45.638;13.764;2023-05-24T09:28:34;10.52;;;4.80;;
75737;SDS011;64356;45.638;13.764;2023-05-24T09:31:00;16.25;;;4.03;;
75737;SDS011;64356;45.638;13.764;2023-05-24T09:33:30;10.30;;;4.43;;
75737;SDS011;64356;45.638;13.764;2023-05-24T09:35:58;10.15;;;5.03;;
75737;SDS011;64356;45.638;13.764;2023-05-24T09:38:25;10.93;;;5.07;;
75737;SDS011;64356;45.638;13.764;2023-05-24T09:41:01;13.93;;;4.60;;
75737;SDS011;64356;45.638;13.764;2023-05-24T09:43:29;13.10;;;5.47;;
75737;SDS011;64356;45.638;13.764;2023-05-24T09:45:57;21.48;;;5.50;;
75737;SDS011;64356;45.638;13.764;2023-05-24T09:48:24;9.05;;;5.35;;
75737;SDS011;64356;45.638;13.764;2023-05-24T09:51:23;13.35;;;4.80;;
75737;SDS011;64356;45.638;13.764;2023-05-24T09:53:43;10.77;;;4.72;;
75737;SDS011;64356;45.638;13.764;2023-05-24T09:56:09;18.90;;;4.53;;
75737;SDS011;64356;45.638;13.764;2023-05-24T09:58:35;11.40;;;4.80;;
75737;SDS011;64356;45.638;13.764;2023-05-24T10:01:07;15.73;;;5.03;;
75737;SDS011;64356;45.638;13.764;2023-05-24T10:03:50;29.77;;;6.75;;
75737;SDS011;64356;45.638;13.764;2023-05-24T10:06:20;24.80;;;5.63;;
75737;SDS011;64356;45.638;13.764;2023-05-24T10:08:46;19.02;;;6.20;;
75737;SDS011;64356;45.638;13.764;2023-05-24T10:11:15;14.15;;;5.50;;
75737;SDS011;64356;45.638;13.764;2023-05-24T10:13:42;20.55;;;5.65;;
75737;SDS011;64356;45.638;13.764;2023-05-24T10:16:08;44.95;;;6.35;;
75737;SDS011;64356;45.638;13.764;2023-05-24T10:18:34;35.92;;;6.28;;
75737;SDS011;64356;45.638;13.764;2023-05-24T10:21:00;16.35;;;6.18;;
75737;SDS011;64356;45.638;13.764;2023-05-24T10:23:29;17.40;;;5.18;;
75737;SDS011;64356;45.638;13.764;2023-05-24T10:26:06;14.82;;;4.45;;
75737;SDS011;64356;45.638;13.764;2023-05-24T10:28:56;10.32;;;5.05;;
75737;SDS011;64356;45.638;13.764;2023-05-24T10:31:26;9.75;;;5.50;;
75737;SDS011;64356;45.638;13.764;2023-05-24T10:33:54;12.52;;;4.72;;
75737;SDS011;64356;45.638;13.764;2023-05-24T10:36:22;12.80;;;4.72;;
75737;SDS011;64356;45.638;13.764;2023-05-24T10:38:50;12.52;;;4.68;;
75737;SDS011;64356;45.638;13.764;2023-05-24T10:41:16;8.95;;;5.25;;
75737;SDS011;64356;45.638;13.764;2023-05-24T10:43:44;10.60;;;4.68;;
75737;SDS011;64356;45.638;13.764;2023-05-24T10:46:11;7.25;;;4.43;;
75737;SDS011;64356;45.638;13.764;2023-05-24T10:48:40;8.15;;;4.72;;
75737;SDS011;64356;45.638;13.764;2023-05-24T10:53:56;6.90;;;4.53;;
75737;SDS011;64356;45.638;13.764;2023-05-24T10:56:23;18.27;;;5.32;;
75737;SDS011;64356;45.638;13.764;2023-05-24T11:01:24;17.52;;;5.28;;
75737;SDS011;64356;45.638;13.764;2023-05-24T11:04:15;11.95;;;6.45;;
75737;SDS011;64356;45.638;13.764;2023-05-24T11:06:53;18.13;;;6.85;;
75737;SDS011;64356;45.638;13.764;2023-05-24T11:09:22;14.65;;;4.97;;
75737;SDS011;64356;45.638;13.764;2023-05-24T11:11:49;13.85;;;5.47;;
75737;SDS011;64356;45.638;13.764;2023-05-24T11:14:19;23.63;;;5.97;;
75737;SDS011;64356;45.638;13.764;2023-05-24T11:16:53;26.70;;;5.60;;
75737;SDS011;64356;45.638;13.764;2023-05-24T11:21:48;20.05;;;5.38;;
75737;SDS011;64356;45.638;13.764;2023-05-24T11:24:15;12.38;;;4.95;;
75737;SDS011;64356;45.638;13.764;2023-05-24T11:26:44;15.57;;;4.90;;
75737;SDS011;64356;45.638;13.764;2023-05-24T11:29:13;7.68;;;4.25;;
75737;SDS011;64356;45.638;13.764;2023-05-24T11:31:50;22.33;;;4.95;;
75737;SDS011;64356;45.638;13.764;2023-05-24T11:34:17;13.38;;;4.40;;
75737;SDS011;64356;45.638;13.764;2023-05-24T11:36:44;11.10;;;4.57;;
75737;SDS011;64356;45.638;13.764;2023-05-24T11:39:11;8.73;;;4.45;;
75737;SDS011;64356;45.638;13.764;2023-05-24T11:41:37;9.85;;;4.70;;
75737;SDS011;64356;45.638;13.764;2023-05-24T11:44:04;8.18;;;4.82;;
75737;SDS011;64356;45.638;13.764;2023-05-24T11:46:31;10.73;;;4.90;;
75737;SDS011;64356;45.638;13.764;2023-05-24T11:48:58;9.48;;;4.13;;
75737;SDS011;64356;45.638;13.764;2023-05-24T11:51:28;36.30;;;5.80;;
75737;SDS011;64356;45.638;13.764;2023-05-24T11:53:55;20.67;;;5.65;;
75737;SDS011;64356;45.638;13.764;2023-05-24T11:56:21;35.35;;;6.35;;
75737;SDS011;64356;45.638;13.764;2023-05-24T11:58:48;34.10;;;6.03;;
75737;SDS011;64356;45.638;13.764;2023-05-24T12:01:26;42.60;;;6.25;;
75737;SDS011;64356;45.638;13.764;2023-05-24T12:03:52;21.55;;;5.97;;
75737;SDS011;64356;45.638;13.764;2023-05-24T12:06:18;14.10;;;5.10;;
75737;SDS011;64356;45.638;13.764;2023-05-24T12:08:45;16.95;;;5.03;;
75737;SDS011;64356;45.638;13.764;2023-05-24T12:11:12;14.30;;;5.43;;
75737;SDS011;64356;45.638;13.764;2023-05-24T12:13:38;9.18;;;5.10;;
75737;SDS011;64356;45.638;13.764;2023-05-24T12:16:05;18.92;;;5.90;;
75737;SDS011;64356;45.638;13.764;2023-05-24T12:18:31;15.00;;;5.43;;
75737;SDS011;64356;45.638;13.764;2023-05-24T12:20:57;26.40;;;5.82;;
75737;SDS011;64356;45.638;13.764;2023-05-24T12:23:24;23.90;;;7.07;;
75737;SDS011;64356;45.638;13.764;2023-05-24T12:25:59;9.75;;;5.10;;
75737;SDS011;64356;45.638;13.764;2023-05-24T12:28:25;13.27;;;4.85;;
75737;SDS011;64356;45.638;13.764;2023-05-24T12:30:52;10.63;;;4.75;;
75737;SDS011;64356;45.638;13.764;2023-05-24T12:33:18;9.55;;;4.07;;
75737;SDS011;64356;45.638;13.764;2023-05-24T12:35:45;8.82;;;4.60;;
75737;SDS011;64356;45.638;13.764;2023-05-24T12:38:12;14.43;;;4.70;;
75737;SDS011;64356;45.638;13.764;2023-05-24T12:40:41;14.23;;;4.40;;
75737;SDS011;64356;45.638;13.764;2023-05-24T12:43:08;9.70;;;4.22;;
75737;SDS011;64356;45.638;13.764;2023-05-24T12:45:34;11.27;;;4.60;;
75737;SDS011;64356;45.638;13.764;2023-05-24T12:48:01;14.52;;;4.78;;
75737;SDS011;64356;45.638;13.764;2023-05-24T12:50:28;11.85;;;4.10;;
75737;SDS011;64356;45.638;13.764;2023-05-24T12:52:55;7.30;;;3.58;;
75737;SDS011;64356;45.638;13.764;2023-05-24T12:55:22;11.65;;;4.75;;
75737;SDS011;64356;45.638;13.764;2023-05-24T12:57:52;26.58;;;4.72;;
75737;SDS011;64356;45.638;13.764;2023-05-24T13:00:22;26.45;;;5.43;;
75737;SDS011;64356;45.638;13.764;2023-05-24T13:02:52;9.88;;;4.40;;
75737;SDS011;64356;45.638;13.764;2023-05-24T13:05:23;16.88;;;5.10;;
75737;SDS011;64356;45.638;13.764;2023-05-24T13:07:51;15.30;;;4.88;;
75737;SDS011;64356;45.638;13.764;2023-05-24T13:10:17;12.38;;;4.88;;
75737;SDS011;64356;45.638;13.764;2023-05-24T13:12:43;12.50;;;5.05;;
75737;SDS011;64356;45.638;13.764;2023-05-24T13:15:10;9.80;;;5.35;;
75737;SDS011;64356;45.638;13.764;2023-05-24T13:17:36;21.05;;;5.60;;
75737;SDS011;64356;45.638;13.764;2023-05-24T13:20:03;13.63;;;4.60;;
75737;SDS011;64356;45.638;13.764;2023-05-24T13:22:32;10.65;;;4.72;;
75737;SDS011;64356;45.638;13.764;2023-05-24T13:24:59;8.10;;;4.30;;
75737;SDS011;64356;45.638;13.764;2023-05-24T13:27:25;7.28;;;4.10;;
75737;SDS011;64356;45.638;13.764;2023-05-24T13:29:51;8.32;;;4.45;;
75737;SDS011;64356;45.638;13.764;2023-05-24T13:32:17;8.85;;;5.47;;
75737;SDS011;64356;45.638;13.764;2023-05-24T13:34:43;9.00;;;4.90;;
75737;SDS011;64356;45.638;13.764;2023-05-24T13:37:08;32.50;;;5.55;;
75737;SDS011;64356;45.638;13.764;2023-05-24T13:39:34;17.40;;;4.72;;
75737;SDS011;64356;45.638;13.764;2023-05-24T13:42:02;14.23;;;4.55;;
75737;SDS011;64356;45.638;13.764;2023-05-24T13:44:28;7.13;;;3.80;;
75737;SDS011;64356;45.638;13.764;2023-05-24T13:46:54;6.88;;;4.18;;
75737;SDS011;64356;45.638;13.764;2023-05-24T13:49:20;8.40;;;5.05;;
75737;SDS011;64356;45.638;13.764;2023-05-24T13:51:46;8.50;;;4.00;;
75737;SDS011;64356;45.638;13.764;2023-05-24T13:54:13;7.82;;;4.53;;
75737;SDS011;64356;45.638;13.764;2023-05-24T13:56:39;24.05;;;4.30;;
75737;SDS011;64356;45.638;13.764;2023-05-24T13:59:06;28.25;;;4.25;;
75737;SDS011;64356;45.638;13.764;2023-05-24T14:01:32;8.70;;;4.00;;
75737;SDS011;64356;45.638;13.764;2023-05-24T14:04:00;4.75;;;3.55;;
75737;SDS011;64356;45.638;13.764;2023-05-24T14:06:26;5.85;;;3.67;;
75737;SDS011;64356;45.638;13.764;2023-05-24T14:08:52;9.27;;;4.13;;
75737;SDS011;64356;45.638;13.764;2023-05-24T14:11:17;15.43;;;4.50;;
75737;SDS011;64356;45.638;13.764;2023-05-24T14:13:44;11.48;;;4.75;;
75737;SDS011;64356;45.638;13.764;2023-05-24T14:16:09;6.97;;;4.10;;
75737;SDS011;64356;45.638;13.764;2023-05-24T14:18:35;5.68;;;4.00;;
75737;SDS011;64356;45.638;13.764;2023-05-24T14:21:02;7.43;;;3.50;;
75737;SDS011;64356;45.638;13.764;2023-05-24T14:23:27;6.05;;;3.78;;
75737;SDS011;64356;45.638;13.764;2023-05-24T14:25:57;10.50;;;3.55;;
75737;SDS011;64356;45.638;13.764;2023-05-24T14:28:23;5.55;;;3.42;;
75737;SDS011;64356;45.638;13.764;2023-05-24T14:30:49;6.07;;;3.65;;
75737;SDS011;64356;45.638;13.764;2023-05-24T14:33:15;8.50;;;3.80;;
75737;SDS011;64356;45.638;13.764;2023-05-24T14:35:41;5.65;;;3.42;;
75737;SDS011;64356;45.638;13.764;2023-05-24T14:38:08;8.25;;;3.80;;
75737;SDS011;64356;45.638;13.764;2023-05-24T14:40:35;4.47;;;3.10;;
75737;SDS011;64356;45.638;13.764;2023-05-24T14:43:07;5.10;;;4.18;;